aviador You're here:

LYBT Decoded Metar

BELGRADE BATAJNICA in SERBIA
Report Time2018-04-27 02:30:00
UTC Time2018-04-27 03:01:45
Flight Rules vfr VFR
Wind300° at 06 kt
W.Decomp.*RWY 30: 6.0 kt HW 0.4 kt LCW
W.Rank300° ranks 9
Current wind is below 300° avg. (7.1)
Visibility9999 m
Phenomena:N/A
Clouds:N/A
Expected CloudBase > 2,800 ft AGL from Temp-Dew spread
CeilingNone
Temp14°C (ISA -0)
Dew Point07°C (63% RH)
AAT11.2°C
QNH1019 hPa
Density Alt141 ft
Elevation262 ft
Report Wrong Elevation
Raw Report
METAR LYBT 270230Z 30006KT CAVOK 14/07 Q1019 NOSIG=

Extra information for LYBT:More info

Metar Taf Metar & Taf Last 4 Metars F.Rules Stats Wind Profile Meteogram Temp Stats Airport Information Weather charts Add Link Nearby VenuesMetar ALERT Operation Metar Decoded Social comments